Time;durP1;ratioP1;P1;durP2;ratioP2;P2;SDS_P1;SDS_P2;PMS_P1;PMS_P2;Temp;Humidity;BMP_temperature;BMP_pressure;BME280_temperature;BME280_humidity;BME280_pressure;Samples;Min_cycle;Max_cycle;Signal;HPM_P1;HPM_P2
2021/06/03 00:02:07;;;;;;;7.10;6.60;;;15.80;22.40;;;;;;5033134;28;20393;-71
2021/06/03 00:04:33;;;;;;;7.50;7.10;;;15.70;22.20;;;;;;5033021;28;20188;-70
2021/06/03 00:06:59;;;;;;;6.47;6.07;;;15.70;22.30;;;;;;5032787;28;20424;-71
2021/06/03 00:09:25;;;;;;;7.50;7.00;;;15.70;22.30;;;;;;5034069;28;20422;-71
2021/06/03 00:11:50;;;;;;;7.57;6.80;;;15.70;22.30;;;;;;5034159;28;20204;-70
2021/06/03 00:14:17;;;;;;;6.77;6.30;;;15.60;22.20;;;;;;5034013;28;20168;-70
2021/06/03 00:16:43;;;;;;;6.20;5.70;;;15.50;22.70;;;;;;5034189;28;20202;-71
2021/06/03 00:19:11;;;;;;;7.47;5.60;;;15.50;23.00;;;;;;5033808;28;20421;-71
2021/06/03 00:21:40;;;;;;;6.13;5.73;;;15.50;23.00;;;;;;5033134;28;20202;-71
2021/06/03 00:24:06;;;;;;;5.67;5.33;;;15.40;22.70;;;;;;5033841;28;20783;-71
2021/06/03 00:26:33;;;;;;;6.03;5.63;;;15.40;22.80;;;;;;5033893;28;20423;-70
2021/06/03 00:28:59;;;;;;;5.20;4.97;;;15.40;23.10;;;;;;5033314;28;20554;-71
2021/06/03 00:31:25;;;;;;;6.30;5.80;;;15.30;23.30;;;;;;5033947;28;20469;-71
2021/06/03 00:33:50;;;;;;;10.80;5.63;;;15.30;23.60;;;;;;5033863;28;20450;-71
2021/06/03 00:36:16;;;;;;;8.03;6.00;;;15.30;23.70;;;;;;5033859;28;20171;-71
2021/06/03 00:38:42;;;;;;;5.37;4.97;;;15.20;24.00;;;;;;5033859;28;20179;-71
2021/06/03 00:41:09;;;;;;;5.20;4.83;;;15.20;24.50;;;;;;5033765;28;20757;-71
2021/06/03 00:43:35;;;;;;;7.03;5.10;;;15.10;24.80;;;;;;5033859;28;20448;-71
2021/06/03 00:46:01;;;;;;;5.03;4.53;;;15.00;25.20;;;;;;5033913;28;20414;-71
2021/06/03 00:48:27;;;;;;;5.60;5.20;;;15.00;25.40;;;;;;5033704;28;20211;-71
2021/06/03 00:50:56;;;;;;;5.27;4.30;;;14.90;25.90;;;;;;5033296;28;20495;-71
2021/06/03 00:53:21;;;;;;;4.93;3.87;;;14.90;25.90;;;;;;5033679;28;20517;-70
2021/06/03 00:55:54;;;;;;;4.87;4.47;;;14.90;25.90;;;;;;5033628;28;20667;-72
2021/06/03 00:58:20;;;;;;;4.03;3.73;;;14.80;25.90;;;;;;5033840;28;20425;-72
2021/06/03 01:00:46;;;;;;;5.47;4.97;;;14.80;26.20;;;;;;5033023;28;20434;-71
2021/06/03 01:03:12;;;;;;;4.87;4.43;;;14.80;26.90;;;;;;5033335;28;20194;-71
2021/06/03 01:05:43;;;;;;;5.23;4.63;;;14.80;26.90;;;;;;5033258;28;20943;-72
2021/06/03 01:08:12;;;;;;;4.83;4.20;;;14.80;27.20;;;;;;5033736;28;20202;-71
2021/06/03 01:11:02;;;;;;;4.27;3.97;;;14.80;27.00;;;;;;5033145;28;20420;-71
2021/06/03 01:13:55;;;;;;;4.03;3.63;;;14.80;27.10;;;;;;5031718;28;20417;-71
2021/06/03 01:16:23;;;;;;;3.90;3.70;;;14.80;27.10;;;;;;5033174;28;20413;-71
2021/06/03 01:18:50;;;;;;;3.73;3.43;;;14.90;27.30;;;;;;5032628;28;20502;-71
2021/06/03 01:21:23;;;;;;;4.77;4.20;;;14.80;27.30;;;;;;5033001;28;20517;-71
2021/06/03 01:24:09;;;;;;;5.13;4.60;;;14.80;28.40;;;;;;5031348;28;20468;-70
2021/06/03 01:26:35;;;;;;;3.57;3.37;;;14.80;28.10;;;;;;5032634;28;20418;-71
2021/06/03 01:29:02;;;;;;;4.00;3.70;;;14.80;28.60;;;;;;5032561;28;20477;-72
2021/06/03 01:31:28;;;;;;;5.33;4.90;;;14.80;29.00;;;;;;5032657;28;20191;-71
2021/06/03 01:33:54;;;;;;;4.60;4.20;;;14.80;29.70;;;;;;5032684;28;20418;-71
2021/06/03 01:36:20;;;;;;;4.27;3.87;;;14.70;30.00;;;;;;5032714;28;20229;-71
2021/06/03 01:38:46;;;;;;;3.80;3.50;;;14.70;30.10;;;;;;5032373;28;20512;-71
2021/06/03 01:41:13;;;;;;;4.83;4.30;;;14.60;31.00;;;;;;5031483;28;20203;-72
2021/06/03 01:43:42;;;;;;;4.97;4.50;;;14.60;31.40;;;;;;5031225;28;20511;-72
2021/06/03 01:46:08;;;;;;;3.87;3.50;;;14.50;31.60;;;;;;5032496;28;20418;-71
2021/06/03 01:48:35;;;;;;;5.67;3.53;;;14.50;31.70;;;;;;5032077;28;20465;-71
2021/06/03 01:51:05;;;;;;;13.50;4.07;;;14.50;31.90;;;;;;5031874;28;20982;-71
2021/06/03 01:53:31;;;;;;;4.73;4.30;;;14.50;32.70;;;;;;5032326;28;21026;-71
2021/06/03 01:56:03;;;;;;;4.53;4.13;;;14.50;32.00;;;;;;5032316;28;20420;-71
2021/06/03 01:58:29;;;;;;;5.40;4.03;;;14.50;31.90;;;;;;5032217;28;20637;-71
2021/06/03 02:00:55;;;;;;;4.53;4.13;;;14.50;32.10;;;;;;5031754;28;21000;-72
2021/06/03 02:03:23;;;;;;;7.17;4.17;;;14.60;32.50;;;;;;5032044;28;20446;-71
2021/06/03 02:05:48;;;;;;;4.33;4.00;;;14.60;33.40;;;;;;5032161;28;20414;-71
2021/06/03 02:08:14;;;;;;;3.87;3.57;;;14.50;33.00;;;;;;5031498;28;20978;-72
2021/06/03 02:10:41;;;;;;;4.03;3.63;;;14.50;33.50;;;;;;5031634;28;20181;-72
2021/06/03 02:13:06;;;;;;;4.40;3.83;;;14.60;33.60;;;;;;5031749;28;20179;-71
2021/06/03 02:15:40;;;;;;;5.03;4.10;;;14.60;33.70;;;;;;5031800;28;20521;-71
2021/06/03 02:18:09;;;;;;;3.60;3.30;;;14.60;35.90;;;;;;5031615;28;20187;-72
2021/06/03 02:20:39;;;;;;;6.07;4.80;;;14.60;33.60;;;;;;5031033;28;20422;-71
2021/06/03 02:23:05;;;;;;;3.90;3.60;;;14.70;33.60;;;;;;5031258;28;20426;-71
2021/06/03 02:25:30;;;;;;;8.93;3.80;;;14.70;33.70;;;;;;5031260;28;20506;-71
2021/06/03 02:27:57;;;;;;;4.20;3.90;;;;;;;;;;5031321;28;20492;-71
2021/06/03 02:30:23;;;;;;;4.10;3.70;;;14.80;33.10;;;;;;5029915;28;20200;-71
2021/06/03 02:32:52;;;;;;;3.23;2.93;;;14.90;33.40;;;;;;5030116;28;20590;-71
2021/06/03 02:35:18;;;;;;;3.47;3.17;;;14.90;33.30;;;;;;5031169;28;20553;-71
2021/06/03 02:37:46;;;;;;;5.17;4.77;;;14.90;33.50;;;;;;5031102;28;20460;-72
2021/06/03 02:40:24;;;;;;;4.90;3.90;;;15.00;33.30;;;;;;5031051;28;20426;-72
2021/06/03 02:42:51;;;;;;;6.17;4.27;;;15.00;33.80;;;;;;5031126;28;20470;-73
2021/06/03 02:45:29;;;;;;;4.30;4.00;;;15.00;33.80;;;;;;5030952;28;20423;-72
2021/06/03 02:47:56;;;;;;;4.97;4.00;;;14.90;34.00;;;;;;5030855;28;20823;-71
2021/06/03 02:50:23;;;;;;;5.50;4.73;;;15.00;34.20;;;;;;5030770;28;20833;-71
2021/06/03 02:52:50;;;;;;;4.50;4.10;;;15.00;33.90;;;;;;5031313;28;20457;-71
2021/06/03 02:55:18;;;;;;;5.73;4.13;;;15.00;34.30;;;;;;5031026;28;20426;-72
2021/06/03 02:57:44;;;;;;;4.60;4.20;;;15.00;34.50;;;;;;5030855;28;20936;-69
2021/06/03 03:00:14;;;;;;;5.13;4.43;;;15.10;34.30;;;;;;5030710;28;20456;-70
2021/06/03 03:02:39;;;;;;;3.77;3.43;;;15.10;34.40;;;;;;5030564;28;20434;-69
2021/06/03 03:05:06;;;;;;;4.13;3.73;;;15.20;34.10;;;;;;5031278;28;20495;-69
2021/06/03 03:07:33;;;;;;;6.33;4.10;;;15.20;34.10;;;;;;5030761;28;20226;-70
2021/06/03 03:10:01;;;;;;;4.43;4.07;;;15.20;34.10;;;;;;5031003;28;20414;-70
2021/06/03 03:12:26;;;;;;;5.37;3.53;;;15.20;34.10;;;;;;5030682;28;20517;-70
2021/06/03 03:14:52;;;;;;;7.83;3.87;;;15.30;34.40;;;;;;5030784;28;20454;-69
2021/06/03 03:17:18;;;;;;;4.50;3.83;;;15.30;34.40;;;;;;5030738;28;20590;-70
2021/06/03 03:19:43;;;;;;;3.57;3.20;;;15.30;34.20;;;;;;5030734;28;20330;-70
2021/06/03 03:22:09;;;;;;;4.07;3.40;;;15.30;34.70;;;;;;5030974;28;20200;-70
2021/06/03 03:24:34;;;;;;;4.67;4.23;;;15.30;34.70;;;;;;5030609;28;20210;-70
2021/06/03 03:27:00;;;;;;;4.33;3.87;;;15.30;34.80;;;;;;5030694;28;20176;-70
2021/06/03 03:29:25;;;;;;;4.30;3.90;;;15.30;34.80;;;;;;5030488;28;20544;-70
2021/06/03 03:31:51;;;;;;;4.23;3.93;;;15.40;34.80;;;;;;5030598;28;20677;-70
2021/06/03 03:34:17;;;;;;;5.00;3.73;;;15.40;34.80;;;;;;5030833;28;20173;-70
2021/06/03 03:36:45;;;;;;;4.30;3.70;;;15.40;34.80;;;;;;5030617;28;20536;-70
2021/06/03 03:39:11;;;;;;;5.70;4.53;;;15.50;34.60;;;;;;5030430;28;20425;-70
2021/06/03 03:41:37;;;;;;;4.67;4.27;;;15.60;34.30;;;;;;5030544;28;20447;-71
2021/06/03 03:44:03;;;;;;;5.77;3.37;;;15.70;34.40;;;;;;5030581;28;20429;-70
2021/06/03 03:46:28;;;;;;;6.20;3.50;;;15.80;33.80;;;;;;5030607;28;20634;-70
2021/06/03 03:48:54;;;;;;;4.30;3.87;;;15.80;33.70;;;;;;5030274;28;20220;-70
2021/06/03 03:51:20;;;;;;;3.90;3.60;;;15.90;33.50;;;;;;5030438;28;20231;-70
2021/06/03 03:53:45;;;;;;;4.00;3.60;;;15.90;33.70;;;;;;5030444;28;20178;-71
2021/06/03 03:56:12;;;;;;;8.47;2.90;;;16.00;33.90;;;;;;5030561;28;20685;-70
2021/06/03 03:58:40;;;;;;;3.33;3.03;;;16.00;33.60;;;;;;5030223;28;20597;-70
2021/06/03 04:01:05;;;;;;;3.47;3.17;;;16.00;33.60;;;;;;5030362;28;20449;-70
2021/06/03 04:03:31;;;;;;;4.67;3.93;;;16.10;33.70;;;;;;5030809;28;20909;-70
2021/06/03 04:05:57;;;;;;;8.20;3.73;;;16.20;33.50;;;;;;5034350;28;20183;-70
2021/06/03 04:08:23;;;;;;;5.83;4.63;;;16.30;33.30;;;;;;5034050;28;20216;-70
2021/06/03 04:10:49;;;;;;;3.63;3.33;;;16.30;33.10;;;;;;5033687;28;20450;-70
2021/06/03 04:13:14;;;;;;;3.57;3.27;;;16.40;33.30;;;;;;5034003;28;20951;-70
2021/06/03 04:15:40;;;;;;;3.73;3.43;;;16.40;32.90;;;;;;5033866;28;20179;-70
2021/06/03 04:18:05;;;;;;;3.60;3.30;;;16.50;33.10;;;;;;5033871;28;20187;-70
2021/06/03 04:20:33;;;;;;;4.03;3.63;;;16.50;32.40;;;;;;5033607;28;20273;-70
2021/06/03 04:22:59;;;;;;;3.97;3.60;;;16.60;32.30;;;;;;5033858;28;20183;-70
2021/06/03 04:25:25;;;;;;;3.40;3.17;;;16.60;31.90;;;;;;5033948;28;20424;-70
2021/06/03 04:27:51;;;;;;;3.67;3.30;;;16.70;31.60;;;;;;5033671;28;20464;-71
2021/06/03 04:30:20;;;;;;;7.70;3.60;;;16.80;31.70;;;;;;5033867;28;20205;-70
2021/06/03 04:32:45;;;;;;;4.47;3.70;;;16.90;31.80;;;;;;5033546;28;20792;-70
2021/06/03 04:35:17;;;;;;;8.40;3.87;;;17.00;31.50;;;;;;5033770;28;20420;-70
2021/06/03 04:37:44;;;;;;;3.10;2.90;;;17.10;31.20;;;;;;5033602;28;20189;-70
2021/06/03 04:40:10;;;;;;;6.80;4.20;;;17.10;31.30;;;;;;5033149;28;20424;-70
2021/06/03 04:42:36;;;;;;;4.87;3.83;;;17.20;31.00;;;;;;5033194;28;20480;-71
2021/06/03 04:45:03;;;;;;;3.97;3.67;;;17.30;30.80;;;;;;5033336;28;20455;-71
2021/06/03 04:47:29;;;;;;;3.83;3.37;;;17.40;30.30;;;;;;5033138;28;20209;-70
2021/06/03 04:49:54;;;;;;;3.87;3.57;;;17.50;30.30;;;;;;5033358;28;20414;-71
2021/06/03 04:52:26;;;;;;;3.73;3.43;;;17.60;30.30;;;;;;5033030;28;20206;-70
2021/06/03 04:54:54;;;;;;;3.20;3.00;;;17.70;29.90;;;;;;5033113;28;20267;-70
2021/06/03 04:57:19;;;;;;;5.20;3.97;;;17.80;29.30;;;;;;5033132;28;20414;-70
2021/06/03 04:59:45;;;;;;;4.00;3.60;;;17.90;29.40;;;;;;5032927;28;20418;-70
2021/06/03 05:02:11;;;;;;;4.10;3.63;;;17.90;29.00;;;;;;5033022;28;20206;-71
2021/06/03 05:04:36;;;;;;;3.80;3.40;;;18.00;29.30;;;;;;5033058;28;20417;-70
2021/06/03 05:07:02;;;;;;;3.80;3.20;;;18.00;29.20;;;;;;5032947;28;20194;-71
2021/06/03 05:09:27;;;;;;;3.20;2.90;;;18.00;29.50;;;;;;5032626;28;20266;-70
2021/06/03 05:11:53;;;;;;;3.47;3.17;;;18.10;29.40;;;;;;5032820;28;20238;-71
2021/06/03 05:14:18;;;;;;;3.57;3.23;;;18.10;29.60;;;;;;5032879;28;20172;-70
2021/06/03 05:16:44;;;;;;;4.13;3.77;;;18.20;29.60;;;;;;5031599;28;20452;-70
2021/06/03 05:19:10;;;;;;;3.23;2.93;;;18.20;29.60;;;;;;5032500;28;20179;-70
2021/06/03 05:21:35;;;;;;;3.50;3.20;;;18.30;29.20;;;;;;5032834;28;20206;-70
2021/06/03 05:24:01;;;;;;;4.70;3.20;;;18.40;28.90;;;;;;5032845;28;20180;-70
2021/06/03 05:26:26;;;;;;;3.63;3.33;;;18.40;29.10;;;;;;5031408;28;20176;-70
2021/06/03 05:28:52;;;;;;;5.43;4.47;;;18.50;28.90;;;;;;5032588;28;20679;-71
2021/06/03 05:31:17;;;;;;;3.80;3.50;;;18.50;28.40;;;;;;5032641;28;20556;-71
2021/06/03 05:33:43;;;;;;;15.87;3.97;;;18.60;28.50;;;;;;5032895;28;20179;-70
2021/06/03 05:36:08;;;;;;;3.57;3.30;;;18.70;28.60;;;;;;5032503;28;20171;-70
2021/06/03 05:38:34;;;;;;;4.60;4.20;;;18.70;28.60;;;;;;5032471;28;20210;-71
2021/06/03 05:40:59;;;;;;;6.63;3.90;;;18.70;28.60;;;;;;5031890;28;20249;-70
2021/06/03 05:43:25;;;;;;;3.70;3.23;;;18.80;28.60;;;;;;5032215;28;20214;-70
2021/06/03 05:45:51;;;;;;;3.67;3.37;;;18.80;28.30;;;;;;5032099;28;20190;-70
2021/06/03 05:48:16;;;;;;;3.33;3.13;;;18.90;28.20;;;;;;5032023;28;20253;-70
2021/06/03 05:50:42;;;;;;;3.73;3.43;;;19.00;28.40;;;;;;5031665;28;20240;-71
2021/06/03 05:53:07;;;;;;;5.30;4.30;;;19.10;28.60;;;;;;5032130;28;20610;-71
2021/06/03 05:55:33;;;;;;;3.90;3.40;;;19.10;28.10;;;;;;5031853;28;20184;-70
2021/06/03 05:57:58;;;;;;;3.80;3.50;;;19.20;28.30;;;;;;5032364;28;20187;-70
2021/06/03 06:00:30;;;;;;;4.13;3.50;;;19.30;28.50;;;;;;5031922;28;20183;-70
2021/06/03 06:02:59;;;;;;;3.30;3.10;;;19.30;27.50;;;;;;5031927;28;20186;-70
2021/06/03 06:08:11;;;;;;;4.30;4.00;;;19.50;26.60;;;;;;5032084;28;20500;-70
2021/06/03 06:10:38;;;;;;;4.50;4.10;;;19.70;26.50;;;;;;5031880;28;20414;-71
2021/06/03 06:13:04;;;;;;;4.90;4.50;;;19.80;26.00;;;;;;5031764;28;20449;-71
2021/06/03 06:15:31;;;;;;;4.53;4.23;;;20.00;25.80;;;;;;5032159;28;20441;-71
2021/06/03 06:17:58;;;;;;;6.27;5.87;;;20.30;25.40;;;;;;5031658;28;20467;-70
2021/06/03 06:20:24;;;;;;;7.27;6.77;;;21.10;24.80;;;;;;5031944;28;20436;-70
2021/06/03 06:22:50;;;;;;;7.53;7.03;;;22.40;21.90;;;;;;5031602;28;20410;-71
2021/06/03 06:25:16;;;;;;;8.33;7.73;;;23.80;20.00;;;;;;5031399;28;20836;-72
2021/06/03 06:27:41;;;;;;;9.27;8.77;;;25.70;16.80;;;;;;5030955;28;20454;-72
2021/06/03 06:30:09;;;;;;;10.30;9.80;;;27.40;13.80;;;;;;5031338;28;20182;-72
2021/06/03 06:32:35;;;;;;;10.93;10.33;;;28.50;12.10;;;;;;5030293;28;20700;-72
2021/06/03 06:35:00;;;;;;;11.53;10.60;;;29.50;10.30;;;;;;5031310;28;20414;-72
2021/06/03 06:37:26;;;;;;;12.10;11.13;;;30.50;8.90;;;;;;5031388;28;20564;-72
2021/06/03 06:39:51;;;;;;;11.53;11.03;;;31.40;7.10;;;;;;5031109;28;20559;-71
2021/06/03 06:42:17;;;;;;;12.53;11.80;;;31.80;6.40;;;;;;5031227;28;20703;-72
2021/06/03 06:44:42;;;;;;;12.43;11.93;;;31.40;6.50;;;;;;5031273;28;20186;-72
2021/06/03 06:47:08;;;;;;;13.70;13.00;;;31.10;7.60;;;;;;5031467;28;20237;-72
2021/06/03 06:49:34;;;;;;;12.93;12.43;;;31.50;6.70;;;;;;5030941;28;20240;-71
2021/06/03 06:51:59;;;;;;;14.30;13.70;;;32.30;5.50;;;;;;5031368;28;20297;-72
2021/06/03 06:54:25;;;;;;;16.00;15.00;;;32.80;5.80;;;;;;5035529;28;20183;-73
2021/06/03 06:56:50;;;;;;;16.80;16.00;;;33.30;5.50;;;;;;5036453;28;20187;-73
2021/06/03 06:59:16;;;;;;;15.97;15.27;;;33.30;4.70;;;;;;5036024;28;20176;-72
2021/06/03 07:01:41;;;;;;;17.90;16.60;;;33.40;4.60;;;;;;5036263;28;20571;-72
2021/06/03 07:04:07;;;;;;;17.23;16.43;;;33.10;4.50;;;;;;5034700;28;20178;-73
2021/06/03 07:06:33;;;;;;;17.20;16.50;;;32.70;5.40;;;;;;5035680;28;20175;-73
2021/06/03 07:08:58;;;;;;;17.67;16.87;;;32.20;5.40;;;;;;5035891;28;20230;-73
2021/06/03 07:11:24;;;;;;;17.37;16.67;;;32.30;5.30;;;;;;5036077;28;20665;-73
2021/06/03 07:13:51;;;;;;;17.87;17.17;;;32.20;4.40;;;;;;5037462;28;20214;-73
2021/06/03 07:16:17;;;;;;;18.80;18.00;;;32.40;4.90;;;;;;5035745;28;20406;-73
2021/06/03 07:18:43;;;;;;;18.20;17.50;;;32.00;4.70;;;;;;5035675;28;20774;-73
2021/06/03 07:21:09;;;;;;;19.20;18.30;;;31.20;5.00;;;;;;5037438;28;20484;-73
2021/06/03 07:23:34;;;;;;;18.73;18.03;;;30.30;5.80;;;;;;5035401;28;20186;-72
2021/06/03 07:26:00;;;;;;;19.53;18.73;;;30.00;7.70;;;;;;5036920;28;20190;-71
2021/06/03 07:28:25;;;;;;;18.53;17.50;;;29.90;6.70;;;;;;5035377;28;20211;-73
2021/06/03 07:30:51;;;;;;;19.23;18.43;;;29.90;7.20;;;;;;5036025;28;20237;-72
2021/06/03 07:33:17;;;;;;;19.30;18.40;;;30.20;7.70;;;;;;5037075;28;20184;-73
2021/06/03 07:35:43;;;;;;;20.03;19.23;;;31.00;6.10;;;;;;5037157;28;20186;-72
2021/06/03 07:38:09;;;;;;;19.50;18.60;;;31.90;5.30;;;;;;5038596;28;20500;-73
2021/06/03 07:40:37;;;;;;;19.83;18.93;;;32.60;4.10;;;;;;5042316;28;20202;-73
2021/06/03 07:43:05;;;;;;;20.60;18.20;;;33.50;3.90;;;;;;5043787;28;20422;-73
2021/06/03 07:45:31;;;;;;;19.10;18.30;;;34.00;3.20;;;;;;5043471;28;20975;-73
2021/06/03 07:47:58;;;;;;;19.63;18.83;;;34.40;2.50;;;;;;5043655;28;21036;-74
2021/06/03 07:50:26;;;;;;;19.57;18.87;;;34.90;2.10;;;;;;5043722;28;20448;-73
2021/06/03 07:52:52;;;;;;;20.60;19.50;;;34.90;2.70;;;;;;5042243;28;20495;-73
2021/06/03 07:55:18;;;;;;;20.17;19.23;;;35.10;1.70;;;;;;5042362;28;20418;-74
2021/06/03 07:57:47;;;;;;;21.07;19.97;;;35.70;1.70;;;;;;5043158;28;20185;-76
2021/06/03 08:00:15;;;;;;;20.60;19.70;;;36.20;1.00;;;;;;5041522;28;21142;-72
2021/06/03 08:02:43;;;;;;;20.30;19.30;;;36.70;1.00;;;;;;5042037;28;20453;-73
2021/06/03 08:05:10;;;;;;;20.33;19.47;;;36.60;1.00;;;;;;5046430;28;20417;-72
2021/06/03 08:07:35;;;;;;;19.63;18.93;;;35.80;1.00;;;;;;5042027;28;20457;-73
2021/06/03 08:10:03;;;;;;;20.70;19.90;;;35.90;1.50;;;;;;5042024;28;20426;-73
2021/06/03 08:12:28;;;;;;;21.00;20.10;;;35.40;1.50;;;;;;5042895;28;20215;-73
2021/06/03 08:14:54;;;;;;;21.53;20.67;;;35.30;2.30;;;;;;5041784;28;20417;-72
2021/06/03 08:17:19;;;;;;;21.70;20.70;;;35.00;2.20;;;;;;5041301;28;20624;-73
2021/06/03 08:19:45;;;;;;;21.23;20.43;;;34.60;2.20;;;;;;5040502;28;20186;-73
2021/06/03 08:22:11;;;;;;;21.40;20.40;;;33.50;3.70;;;;;;5041737;28;20210;-72
2021/06/03 08:24:36;;;;;;;21.60;20.57;;;33.10;5.30;;;;;;5040080;28;20180;-72
2021/06/03 08:27:03;;;;;;;20.53;19.73;;;32.70;3.90;;;;;;5039259;28;20179;-73
2021/06/03 08:29:28;;;;;;;21.00;20.10;;;31.80;5.20;;;;;;5037722;28;20302;-72
2021/06/03 08:31:54;;;;;;;20.30;19.50;;;31.10;5.70;;;;;;5035690;28;20465;-72
2021/06/03 08:34:20;;;;;;;21.23;19.90;;;30.40;7.10;;;;;;5037090;28;20235;-72
2021/06/03 08:36:45;;;;;;;20.50;19.70;;;30.40;7.30;;;;;;5038903;28;20699;-71
2021/06/03 08:39:11;;;;;;;19.90;19.17;;;30.80;7.10;;;;;;5038544;28;20184;-72
2021/06/03 08:41:41;;;;;;;20.20;19.20;;;30.80;6.30;;;;;;5038271;28;20198;-72
2021/06/03 08:44:08;;;;;;;20.43;19.53;;;30.60;7.70;;;;;;5038605;28;20653;-72
2021/06/03 08:46:34;;;;;;;20.30;19.50;;;30.50;7.80;;;;;;5037891;28;20418;-72
2021/06/03 08:49:02;;;;;;;20.90;20.00;;;31.00;6.00;;;;;;5038465;28;20872;-72
2021/06/03 08:51:28;;;;;;;20.20;19.40;;;31.70;5.70;;;;;;5065666;22;20542;-73
2021/06/03 08:53:54;;;;;;;20.87;19.97;;;32.10;5.40;;;;;;5053195;28;21003;-73
2021/06/03 08:56:20;;;;;;;20.40;19.50;;;31.60;5.10;;;;;;5053689;28;20163;-73
2021/06/03 08:58:48;;;;;;;20.13;19.10;;;30.60;7.20;;;;;;5053004;28;20182;-73
2021/06/03 09:01:14;;;;;;;19.67;18.90;;;30.10;6.60;;;;;;5052952;28;20436;-72
2021/06/03 09:03:41;;;;;;;20.10;19.30;;;29.70;9.40;;;;;;5051785;28;20425;-73
2021/06/03 09:06:08;;;;;;;19.77;18.97;;;29.30;7.30;;;;;;5053199;28;20402;-73
2021/06/03 09:08:38;;;;;;;19.60;18.90;;;28.80;9.30;;;;;;5052862;28;20531;-73
2021/06/03 09:11:14;;;;;;;19.67;18.70;;;28.20;10.10;;;;;;5052703;28;20471;-72
2021/06/03 09:13:45;;;;;;;19.10;18.40;;;27.80;9.30;;;;;;5053030;28;20409;-72
2021/06/03 09:16:10;;;;;;;17.60;16.90;;;27.50;10.60;;;;;;5053044;28;20488;-72
2021/06/03 09:18:44;;;;;;;17.30;16.70;;;27.70;11.70;;;;;;5052638;28;20504;-73
2021/06/03 09:21:18;;;;;;;18.30;17.50;;;27.80;12.10;;;;;;5051333;28;20213;-73
2021/06/03 09:23:47;;;;;;;18.93;17.87;;;27.90;10.30;;;;;;5052782;28;20413;-73
2021/06/03 09:26:16;;;;;;;18.53;17.83;;;27.70;10.20;;;;;;5052731;28;20550;-73
2021/06/03 09:28:44;;;;;;;17.80;17.10;;;27.60;10.40;;;;;;5051229;28;20464;-73
2021/06/03 09:31:21;;;;;;;18.10;17.40;;;27.50;10.50;;;;;;5052496;28;20437;-73
2021/06/03 09:33:52;;;;;;;18.47;17.70;;;27.70;10.50;;;;;;5052417;28;20411;-73
2021/06/03 09:36:41;;;;;;;17.77;17.07;;;27.80;9.90;;;;;;5051053;28;20417;-73
2021/06/03 09:39:23;;;;;;;19.03;18.03;;;27.90;11.30;;;;;;5054165;28;20425;-73
2021/06/03 09:42:06;;;;;;;19.40;18.60;;;28.00;10.50;;;;;;5052394;28;20517;-73
2021/06/03 09:44:45;;;;;;;18.87;18.10;;;28.00;11.00;;;;;;5052290;28;20427;-73
2021/06/03 09:47:14;;;;;;;18.90;18.20;;;28.10;10.00;;;;;;5052176;28;20412;-73
2021/06/03 09:49:44;;;;;;;18.33;17.63;;;27.90;9.20;;;;;;5051891;28;20993;-73
2021/06/03 09:52:18;;;;;;;18.93;18.23;;;27.70;10.10;;;;;;5051941;28;20753;-73
2021/06/03 09:54:51;;;;;;;19.00;18.30;;;27.70;10.40;;;;;;5052037;28;20894;-72
2021/06/03 09:57:17;;;;;;;18.57;17.77;;;27.60;9.80;;;;;;5051970;28;20984;-73
2021/06/03 09:59:56;;;;;;;19.53;18.43;;;27.60;12.40;;;;;;5051571;28;20405;-73
2021/06/03 10:02:22;;;;;;;19.43;18.63;;;27.60;11.70;;;;;;5049721;28;20475;-74
2021/06/03 10:04:49;;;;;;;18.67;17.97;;;27.50;10.50;;;;;;5051704;28;20441;-72
2021/06/03 10:07:17;;;;;;;19.60;18.70;;;27.20;10.10;;;;;;5050739;28;20533;-72
2021/06/03 10:09:42;;;;;;;18.83;18.03;;;27.10;10.60;;;;;;5051484;28;20444;-72
2021/06/03 10:12:33;;;;;;;17.87;17.17;;;27.20;10.60;;;;;;5051574;28;20950;-72
2021/06/03 10:15:03;;;;;;;17.93;17.23;;;27.20;10.60;;;;;;5050513;28;20179;-72
2021/06/03 10:17:32;;;;;;;17.73;17.03;;;27.50;10.90;;;;;;5050352;28;20409;-72
2021/06/03 10:20:00;;;;;;;18.07;17.33;;;27.80;9.80;;;;;;5051283;28;20416;-72
2021/06/03 10:22:29;;;;;;;19.00;18.30;;;27.80;9.50;;;;;;5051749;28;20429;-72
2021/06/03 10:24:59;;;;;;;19.37;18.57;;;27.90;9.60;;;;;;5051612;28;20469;-72
2021/06/03 10:27:38;;;;;;;19.97;19.00;;;27.80;9.60;;;;;;5051450;28;20439;-73
2021/06/03 10:30:20;;;;;;;18.37;17.53;;;27.60;9.80;;;;;;5050041;28;20433;-72
2021/06/03 10:32:48;;;;;;;18.63;17.93;;;27.40;11.40;;;;;;5051223;28;20853;-73
2021/06/03 10:35:18;;;;;;;18.40;17.70;;;27.20;11.40;;;;;;5051554;28;20405;-71
2021/06/03 10:37:45;;;;;;;17.87;17.17;;;27.30;12.60;;;;;;5051214;28;20417;-73
2021/06/03 10:40:23;;;;;;;19.20;18.40;;;27.50;12.30;;;;;;5051194;28;20503;-72
2021/06/03 10:42:49;;;;;;;18.90;18.20;;;27.60;10.90;;;;;;5050928;28;20440;-73
2021/06/03 10:45:17;;;;;;;19.53;18.67;;;27.60;10.40;;;;;;5051105;28;20405;-72
2021/06/03 10:47:46;;;;;;;18.30;17.60;;;27.60;10.80;;;;;;5050383;28;20448;-73
2021/06/03 10:50:20;;;;;;;18.43;17.63;;;27.40;11.10;;;;;;5051387;28;20903;-72
2021/06/03 10:52:47;;;;;;;17.83;16.93;;;26.80;12.20;;;;;;5049580;28;20485;-72
2021/06/03 10:55:28;;;;;;;16.70;16.10;;;26.40;13.90;;;;;;5049603;28;20422;-73
2021/06/03 10:57:57;;;;;;;16.43;15.43;;;25.90;14.70;;;;;;5051039;28;20412;-73
2021/06/03 11:00:46;;;;;;;14.80;14.20;;;25.60;15.20;;;;;;5051162;28;20424;-73
2021/06/03 11:03:21;;;;;;;15.00;14.40;;;25.30;16.80;;;;;;5049769;28;20445;-72
2021/06/03 11:05:49;;;;;;;14.33;13.67;;;25.10;16.00;;;;;;5050971;28;20444;-72
2021/06/03 11:08:55;;;;;;;13.13;12.43;;;24.90;17.50;;;;;;5049694;28;20453;-72
2021/06/03 11:11:30;;;;;;;11.83;11.33;;;24.40;19.10;;;;;;5050969;28;20809;-72
2021/06/03 11:13:55;;;;;;;11.23;10.73;;;24.60;19.20;;;;;;5049428;28;20427;-73
2021/06/03 11:16:36;;;;;;;11.17;10.67;;;24.60;19.50;;;;;;5050743;28;20906;-73
2021/06/03 11:19:01;;;;;;;11.57;10.97;;;24.70;18.90;;;;;;5050532;28;20178;-72
2021/06/03 11:21:41;;;;;;;12.30;11.80;;;24.90;19.40;;;;;;5050584;28;20429;-72
2021/06/03 11:24:31;;;;;;;13.00;12.20;;;25.10;18.20;;;;;;5050733;28;20171;-72
2021/06/03 11:26:58;;;;;;;12.50;11.97;;;25.10;17.60;;;;;;5050765;28;20818;-72
2021/06/03 11:29:42;;;;;;;12.53;12.03;;;25.20;17.80;;;;;;5050451;28;20460;-73
2021/06/03 11:32:08;;;;;;;14.07;13.47;;;25.40;17.00;;;;;;5050675;28;20433;-73
2021/06/03 11:34:42;;;;;;;14.23;13.63;;;25.40;15.60;;;;;;5050405;28;20420;-73
2021/06/03 11:37:20;;;;;;;15.73;15.23;;;25.40;14.80;;;;;;5050493;28;20178;-72
2021/06/03 11:39:56;;;;;;;16.20;15.20;;;25.60;12.00;;;;;;5050444;28;20405;-73
2021/06/03 11:42:29;;;;;;;16.07;15.47;;;25.70;13.00;;;;;;5050478;28;20424;-73
2021/06/03 11:45:12;;;;;;;14.77;14.27;;;25.80;13.60;;;;;;5050930;28;20409;-72
2021/06/03 11:47:38;;;;;;;15.07;14.53;;;26.00;14.50;;;;;;5050452;28;20455;-72
2021/06/03 11:50:13;;;;;;;15.37;14.77;;;26.10;13.70;;;;;;5050460;28;20775;-73
2021/06/03 11:52:39;;;;;;;15.33;14.77;;;26.30;13.30;;;;;;5048985;28;20756;-72
2021/06/03 11:55:08;;;;;;;15.17;14.67;;;26.60;11.90;;;;;;5049094;28;20409;-73
2021/06/03 11:57:37;;;;;;;16.00;15.30;;;26.70;12.30;;;;;;5048990;28;20416;-73
2021/06/03 12:00:10;;;;;;;16.10;15.30;;;26.60;13.90;;;;;;5050016;28;20919;-73
2021/06/03 12:02:44;;;;;;;14.27;13.77;;;26.60;14.30;;;;;;5050639;28;20436;-72
2021/06/03 12:05:13;;;;;;;15.73;15.13;;;26.70;16.10;;;;;;5050334;28;20432;-72
2021/06/03 12:07:51;;;;;;;16.70;16.10;;;26.70;14.00;;;;;;5050282;28;20447;-73
2021/06/03 12:10:40;;;;;;;16.80;16.10;;;26.60;12.10;;;;;;5050014;28;20425;-73
2021/06/03 12:13:19;;;;;;;17.10;16.40;;;26.30;13.20;;;;;;5049972;28;20456;-73
2021/06/03 12:15:45;;;;;;;16.37;15.77;;;26.00;13.30;;;;;;5050880;28;20985;-73
2021/06/03 12:18:11;;;;;;;16.73;15.93;;;25.80;12.90;;;;;;5049239;28;20425;-73
2021/06/03 12:20:36;;;;;;;16.43;15.83;;;25.70;14.00;;;;;;5049948;28;20467;-73
2021/06/03 12:23:07;;;;;;;17.27;16.27;;;25.70;14.20;;;;;;5050048;28;20726;-72
2021/06/03 12:25:38;;;;;;;16.23;15.43;;;25.70;14.30;;;;;;5051631;28;20640;-73
2021/06/03 12:28:05;;;;;;;15.80;15.20;;;25.90;14.80;;;;;;5053752;28;20988;-72
2021/06/03 12:30:33;;;;;;;15.30;14.70;;;25.90;14.80;;;;;;5052173;28;20463;-72
2021/06/03 12:33:09;;;;;;;11.17;10.43;;;26.00;16.50;;;;;;5053595;28;20435;-73
2021/06/03 12:35:41;;;;;;;9.07;8.67;;;25.60;20.30;;;;;;5053558;28;20424;-72
2021/06/03 12:38:09;;;;;;;8.83;8.33;;;24.80;21.10;;;;;;5052434;28;20459;-71
2021/06/03 12:40:36;;;;;;;7.17;6.43;;;23.90;23.60;;;;;;5053281;28;20421;-73
2021/06/03 12:43:05;;;;;;;4.70;4.23;;;23.10;25.70;;;;;;5052112;28;20437;-72
2021/06/03 12:45:37;;;;;;;2.77;2.57;;;22.20;28.30;;;;;;5053407;28;20413;-71
2021/06/03 12:48:06;;;;;;;3.23;2.93;;;21.80;31.20;;;;;;5053173;28;20449;-71
2021/06/03 12:50:36;;;;;;;3.10;2.80;;;21.50;32.40;;;;;;5053182;28;21002;-71